createdAt,value
2022-08-24T00:22:57.663Z,26.04
2022-08-24T00:29:44.647Z,26.83
2022-08-24T01:14:22.610Z,26.58
2022-08-24T01:20:48.753Z,26.43
2022-08-24T01:35:23.752Z,27.14
2022-08-24T01:41:54.441Z,25.85
2022-08-24T01:48:54.571Z,26.75
2022-08-24T02:18:05.746Z,27.22
2022-08-24T02:24:49.400Z,27.56
2022-08-24T02:31:39.191Z,26.77
2022-08-24T02:52:46.765Z,27.61
2022-08-24T03:00:08.196Z,27.92
2022-08-24T03:08:27.345Z,26.50
2022-08-24T03:14:03.054Z,26.67
2022-08-24T03:20:53.373Z,28.09
2022-08-24T03:27:43.639Z,27.33
2022-08-24T03:34:33.879Z,27.58
2022-08-24T03:41:43.163Z,28.36
2022-08-24T03:48:32.160Z,26.66
2022-08-24T03:55:36.973Z,27.69
2022-08-24T04:09:31.354Z,26.16
2022-08-24T04:16:16.249Z,27.08
2022-08-24T04:30:16.666Z,26.79
2022-08-24T04:37:28.193Z,27.56
2022-08-24T04:58:04.097Z,27.28
2022-08-24T05:05:16.443Z,27.52
2022-08-24T05:53:16.703Z,26.85
2022-08-24T06:00:12.744Z,28.34
2022-08-24T06:39:02.461Z,27.38
2022-08-24T07:22:55.145Z,27.09
2022-08-24T07:29:01.325Z,25.59
2022-08-24T07:41:20.238Z,26.76
2022-08-24T07:54:46.671Z,27.08
2022-08-24T08:01:47.344Z,26.45
2022-08-24T08:15:14.724Z,26.35
2022-08-24T08:21:44.055Z,27.77
2022-08-24T08:41:55.589Z,27.23
2022-08-24T08:47:50.640Z,25.95
2022-08-24T08:59:51.571Z,26.08
2022-08-24T09:18:52.155Z,25.76
2022-08-24T09:24:50.061Z,26.80
2022-08-24T09:36:56.969Z,26.61
2022-08-24T09:50:32.328Z,28.73
2022-08-24T09:57:50.262Z,27.89
2022-08-24T10:04:34.729Z,26.67
2022-08-24T10:11:19.030Z,28.24
2022-08-24T10:18:09.343Z,28.89
2022-08-24T10:25:10.344Z,27.74
2022-08-24T10:32:00.968Z,27.33
2022-08-24T11:00:53.367Z,27.86
2022-08-24T11:28:34.005Z,29.43
2022-08-24T11:35:20.106Z,29.69
2022-08-24T11:42:12.847Z,28.41
2022-08-24T11:48:56.326Z,27.97
2022-08-24T11:55:47.352Z,28.00
2022-08-24T12:02:38.348Z,28.99
2022-08-24T12:57:57.803Z,28.41
2022-08-24T13:04:50.881Z,27.69
2022-08-24T13:11:53.581Z,27.60
2022-08-24T13:25:36.697Z,28.17
2022-08-24T13:32:26.258Z,28.98
2022-08-24T13:46:44.455Z,27.50
2022-08-24T13:53:34.286Z,27.72
2022-08-24T14:34:28.564Z,29.40
2022-08-24T14:41:18.726Z,28.67
2022-08-24T14:54:52.297Z,28.29
2022-08-24T15:49:16.315Z,27.32
2022-08-24T15:56:04.508Z,28.80
2022-08-24T16:23:26.444Z,27.15
2022-08-24T16:29:12.211Z,28.61
2022-08-24T16:35:39.608Z,27.65
2022-08-24T16:41:23.503Z,27.12
2022-08-24T16:47:57.469Z,27.81
2022-08-24T16:54:39.219Z,28.10
2022-08-24T17:01:27.098Z,26.99
2022-08-24T17:20:09.954Z,27.62
2022-08-24T17:25:32.843Z,27.86
2022-08-24T17:31:36.372Z,27.91
2022-08-24T17:37:23.481Z,27.84
2022-08-24T17:43:11.554Z,26.97
2022-08-24T17:48:52.404Z,28.20
2022-08-24T18:00:59.033Z,28.26
2022-08-24T18:07:42.405Z,26.98
2022-08-24T18:14:25.993Z,25.42
2022-08-24T18:21:09.557Z,24.58
2022-08-24T18:27:53.637Z,26.59
2022-08-24T18:34:36.569Z,25.25
2022-08-24T18:41:19.870Z,24.16
2022-08-24T18:48:02.703Z,24.76
2022-08-24T18:54:26.709Z,25.57
2022-08-24T19:01:10.278Z,24.05
2022-08-24T19:07:53.998Z,25.09
2022-08-24T19:14:38.284Z,25.79
2022-08-24T19:21:22.249Z,24.24
2022-08-24T19:28:09.481Z,25.01
2022-08-24T19:34:55.700Z,24.33
2022-08-24T19:41:41.491Z,25.38
2022-08-24T19:48:28.349Z,25.95
2022-08-24T19:55:14.589Z,24.15
2022-08-24T20:02:00.393Z,24.87
2022-08-24T20:09:05.009Z,24.87
2022-08-24T20:15:51.098Z,25.20
2022-08-24T20:22:18.481Z,24.74
2022-08-24T20:28:44.792Z,24.83
2022-08-24T20:35:29.560Z,26.50
2022-08-24T20:41:36.610Z,25.99
2022-08-24T20:47:34.193Z,24.56
2022-08-24T20:52:58.085Z,25.12
2022-08-24T20:59:28.521Z,26.94
2022-08-24T21:05:30.804Z,26.94
2022-08-24T21:11:54.619Z,25.52
2022-08-24T21:18:37.753Z,24.47
2022-08-24T21:25:21.043Z,25.56
2022-08-24T21:31:51.921Z,27.09
2022-08-24T21:38:35.231Z,26.39
2022-08-24T21:45:19.374Z,26.88
2022-08-24T21:52:02.453Z,26.63
2022-08-24T22:05:34.973Z,26.57
2022-08-24T22:11:57.359Z,26.93
2022-08-24T22:18:20.574Z,25.24
